Time;durP1;ratioP1;P1;durP2;ratioP2;P2;SDS_P1;SDS_P2;PMS_P1;PMS_P2;Temp;Humidity;BMP_temperature;BMP_pressure;BME280_temperature;BME280_humidity;BME280_pressure;Samples;Min_cycle;Max_cycle;Signal;HPM_P1;HPM_P2
2023/12/23 00:05:09;;;;;;;0.10;0.10;;;;;;;1.12;85.48;99095.53;15738178;28;20043;-50
2023/12/23 00:12:43;;;;;;;0.00;0.00;;;;;;;1.11;85.61;99107.06;15738312;28;20094;-48
2023/12/23 00:20:17;;;;;;;0.08;0.08;;;;;;;1.25;85.30;99114.13;15719403;28;20045;-48
2023/12/23 00:27:52;;;;;;;0.00;0.00;;;;;;;1.21;84.75;99135.81;15737006;28;20093;-52
2023/12/23 00:35:26;;;;;;;0.00;0.00;;;;;;;1.23;84.69;99157.63;15719035;28;20123;-49
2023/12/23 00:43:01;;;;;;;0.00;0.00;;;;;;;1.31;84.99;99161.97;15701528;28;20064;-48
2023/12/23 00:50:35;;;;;;;0.00;0.00;;;;;;;1.27;84.08;99177.38;15719198;28;20119;-50
2023/12/23 00:58:09;;;;;;;0.00;0.00;;;;;;;1.18;83.88;99204.94;15700447;28;20056;-49
2023/12/23 01:05:43;;;;;;;0.00;0.00;;;;;;;1.29;83.04;99233.50;15714763;28;20033;-52
2023/12/23 01:13:23;;;;;;;0.00;0.00;;;;;;;1.26;82.46;99233.91;15716641;28;20041;-48
2023/12/23 01:20:56;;;;;;;0.00;0.00;;;;;;;1.26;81.97;99284.94;15715427;28;20033;-48
2023/12/23 01:28:31;;;;;;;;;;;;;;;1.44;80.53;99287.13;15716616;28;20041;-50
2023/12/23 01:36:05;;;;;;;0.00;0.00;;;;;;;1.46;80.60;99319.50;15726906;28;19938;-49
2023/12/23 01:43:41;;;;;;;0.00;0.00;;;;;;;1.27;80.59;99330.69;15714591;28;20474;-47
2023/12/23 01:51:15;;;;;;;0.00;0.00;;;;;;;1.14;79.46;99356.94;15703879;28;20098;-48
2023/12/23 01:58:51;;;;;;;0.00;0.00;;;;;;;1.32;78.93;99357.38;15709594;28;20122;-49
2023/12/23 02:06:24;;;;;;;0.00;0.00;;;;;;;1.37;78.38;99385.91;15725331;28;20068;-47
2023/12/23 02:14:01;;;;;;;;;;;;;;;1.55;77.74;99382.88;15726648;28;20413;-48
2023/12/23 02:21:36;;;;;;;0.00;0.00;;;;;;;1.53;75.72;99415.59;15726224;28;19920;-52
2023/12/23 02:29:10;;;;;;;0.15;0.15;;;;;;;1.52;75.66;99411.31;15725629;28;20077;-48
2023/12/23 02:36:45;;;;;;;0.00;0.00;;;;;;;1.55;75.43;99425.19;15707642;28;20472;-50
2023/12/23 02:44:18;;;;;;;0.00;0.00;;;;;;;1.34;75.63;99442.59;15724579;28;20055;-48
2023/12/23 02:51:55;;;;;;;0.00;0.00;;;;;;;1.27;75.38;99442.50;15723079;28;20075;-50
2023/12/23 02:59:29;;;;;;;0.00;0.00;;;;;;;1.38;74.94;99462.38;15724634;28;20043;-52
2023/12/23 03:07:04;;;;;;;0.00;0.00;;;;;;;1.36;75.37;99482.88;15734019;28;20462;-48
2023/12/23 03:14:37;;;;;;;0.00;0.00;;;;;;;1.29;75.94;99495.19;15722696;28;20222;-49
2023/12/23 03:22:13;;;;;;;0.00;0.00;;;;;;;1.27;75.19;99490.09;15722390;28;20049;-51
2023/12/23 03:29:47;;;;;;;0.00;0.00;;;;;;;1.52;74.32;99495.09;15720881;28;20449;-50
2023/12/23 03:37:27;;;;;;;0.00;0.00;;;;;;;1.38;74.16;99511.78;15719670;28;20060;-48
2023/12/23 03:45:00;;;;;;;0.00;0.00;;;;;;;1.38;73.80;99525.81;15717781;28;20068;-49
2023/12/23 03:52:36;;;;;;;0.00;0.00;;;;;;;1.49;73.00;99541.25;15720997;28;20131;-50
2023/12/23 04:00:12;;;;;;;0.30;0.30;;;;;;;1.46;73.22;99541.59;15718395;28;20122;-50
2023/12/23 04:07:51;;;;;;;0.00;0.00;;;;;;;1.56;72.30;99538.69;15736378;28;20039;-49
2023/12/23 04:15:26;;;;;;;0.20;0.20;;;;;;;1.50;71.64;99553.47;15718171;28;20040;-49
2023/12/23 04:23:03;;;;;;;0.00;0.00;;;;;;;1.62;72.33;99560.94;15716397;28;20062;-49
2023/12/23 04:30:36;;;;;;;0.00;0.00;;;;;;;1.73;71.42;99550.75;15718596;28;20036;-49
2023/12/23 04:38:14;;;;;;;0.00;0.00;;;;;;;1.77;71.25;99567.06;15716786;28;20505;-51
2023/12/23 04:45:48;;;;;;;0.00;0.00;;;;;;;1.80;71.66;99556.13;15717247;28;20055;-50
2023/12/23 04:53:23;;;;;;;0.00;0.00;;;;;;;1.86;71.06;99568.59;15716203;28;20076;-51
2023/12/23 05:00:57;;;;;;;0.00;0.00;;;;;;;1.80;72.78;99550.81;15716294;28;20198;-50
2023/12/23 05:08:32;;;;;;;0.00;0.00;;;;;;;1.82;73.52;99548.00;15716588;28;20688;-50
2023/12/23 05:16:07;;;;;;;0.00;0.00;;;;;;;1.93;73.82;99556.31;15717059;28;20040;-50
2023/12/23 05:23:42;;;;;;;0.00;0.00;;;;;;;1.98;74.53;99543.34;15702240;28;20113;-50
2023/12/23 05:31:15;;;;;;;0.00;0.00;;;;;;;1.98;74.25;99545.97;15720854;28;20292;-52
2023/12/23 05:38:52;;;;;;;0.30;0.30;;;;;;;2.00;75.08;99566.97;15745048;28;20055;-51
2023/12/23 05:46:26;;;;;;;0.00;0.00;;;;;;;1.85;77.43;99564.31;15743620;28;20455;-50
2023/12/23 05:54:01;;;;;;;0.00;0.00;;;;;;;2.03;79.25;99551.53;15744785;28;20080;-48
2023/12/23 06:01:35;;;;;;;0.00;0.00;;;;;;;1.96;79.02;99548.00;15726379;28;20122;-50
2023/12/23 06:09:10;;;;;;;0.00;0.00;;;;;;;1.88;80.97;99539.34;15726533;28;20140;-49
2023/12/23 06:16:44;;;;;;;0.00;0.00;;;;;;;1.83;82.37;99534.59;15742850;28;20048;-48
2023/12/23 06:24:19;;;;;;;;;;;;;;;1.98;82.43;99526.63;15743685;28;20132;-51
2023/12/23 06:31:52;;;;;;;0.00;0.00;;;;;;;1.66;83.04;99518.09;15742863;28;20047;-50
2023/12/23 06:39:27;;;;;;;0.00;0.00;;;;;;;1.76;82.87;99502.75;15741362;28;20062;-47
2023/12/23 06:47:00;;;;;;;0.00;0.00;;;;;;;2.00;81.58;99506.91;15742848;28;20052;-51
2023/12/23 06:54:35;;;;;;;;;;;;;;;2.08;81.08;99503.34;15743241;28;20139;-47
2023/12/23 07:02:10;;;;;;;0.00;0.00;;;;;;;2.25;81.24;99498.66;15724290;28;20151;-49
2023/12/23 07:09:45;;;;;;;0.00;0.00;;;;;;;2.14;81.95;99483.25;15739630;28;20131;-46
2023/12/23 07:17:18;;;;;;;6.55;1.35;;;;;;;2.20;83.45;99469.28;15723918;28;20150;-50
2023/12/23 07:24:55;;;;;;;0.00;0.00;;;;;;;2.47;82.27;99487.09;15740478;28;20052;-48
2023/12/23 07:32:28;;;;;;;0.00;0.00;;;;;;;2.68;82.31;99488.91;15722370;28;20502;-47
2023/12/23 07:40:04;;;;;;;0.00;0.00;;;;;;;2.19;84.54;99481.72;15720768;28;20106;-52
2023/12/23 07:47:38;;;;;;;0.00;0.00;;;;;;;1.97;85.00;99474.72;15703646;28;20040;-49
2023/12/23 07:55:14;;;;;;;0.00;0.00;;;;;;;1.88;84.84;99466.06;15737933;28;20040;-47
2023/12/23 08:02:51;;;;;;;0.10;0.10;;;;;;;1.92;85.20;99451.47;15720895;28;20047;-47
2023/12/23 08:10:25;;;;;;;0.00;0.00;;;;;;;2.00;85.27;99453.97;15720044;28;20135;-49
2023/12/23 08:18:01;;;;;;;0.00;0.00;;;;;;;1.89;85.32;99449.19;15737203;28;20116;-52
2023/12/23 08:25:39;;;;;;;0.00;0.00;;;;;;;1.49;87.13;99451.34;15738064;28;20053;-51
2023/12/23 08:33:13;;;;;;;0.00;0.00;;;;;;;1.96;86.40;99450.09;15736673;28;20048;-46
2023/12/23 08:40:47;;;;;;;;;;;;;;;1.85;86.23;99455.84;15720493;28;20045;-50
2023/12/23 08:48:20;;;;;;;0.10;0.10;;;;;;;1.85;86.97;99450.56;15738973;28;20389;-47
2023/12/23 08:55:57;;;;;;;0.00;0.00;;;;;;;2.27;85.20;99438.41;15735845;28;20128;-48
2023/12/23 09:03:31;;;;;;;0.00;0.00;;;;;;;2.07;85.06;99402.97;15714535;28;20082;-47
2023/12/23 09:11:07;;;;;;;0.00;0.00;;;;;;;1.96;84.50;99452.75;15733655;28;20033;-48
2023/12/23 09:18:41;;;;;;;0.00;0.00;;;;;;;2.04;84.54;99451.78;15714128;28;20040;-48
2023/12/23 09:26:16;;;;;;;;;;;;;;;2.11;84.34;99457.19;15714737;28;20068;-48
2023/12/23 09:33:49;;;;;;;0.00;0.00;;;;;;;1.84;85.57;99448.09;15732505;28;19920;-49
2023/12/23 09:41:27;;;;;;;0.00;0.00;;;;;;;2.12;84.97;99454.34;15731850;28;20063;-46
2023/12/23 09:49:01;;;;;;;0.32;0.32;;;;;;;2.12;84.70;99450.88;15731378;28;20497;-46
2023/12/23 09:56:37;;;;;;;0.00;0.00;;;;;;;2.01;84.84;99438.97;15731786;28;20036;-52
2023/12/23 10:04:11;;;;;;;0.00;0.00;;;;;;;2.03;84.69;99447.50;15729996;28;20071;-46
2023/12/23 10:11:45;;;;;;;0.10;0.10;;;;;;;1.88;85.30;99455.50;15719945;28;20032;-50
2023/12/23 10:19:22;;;;;;;0.00;0.00;;;;;;;1.64;87.78;99453.97;15708904;28;20170;-48
2023/12/23 10:26:59;;;;;;;0.00;0.00;;;;;;;1.62;87.26;99449.88;15740378;28;20037;-48
2023/12/23 10:34:43;;;;;;;0.00;0.00;;;;;;;1.71;86.16;99462.00;15742736;28;20048;-49
2023/12/23 10:42:23;;;;;;;0.00;0.00;;;;;;;1.89;87.22;99445.72;15737589;28;20673;-49
2023/12/23 10:49:57;;;;;;;0.00;0.00;;;;;;;1.64;87.75;99451.34;15747621;28;20068;-47
2023/12/23 10:57:33;;;;;;;0.00;0.00;;;;;;;1.72;86.48;99458.34;15725371;28;20025;-47
2023/12/23 11:05:08;;;;;;;0.10;0.10;;;;;;;1.73;85.59;99460.81;15723013;28;20052;-48
2023/12/23 11:12:44;;;;;;;0.00;0.00;;;;;;;1.64;85.91;99461.09;15740825;28;20378;-52
2023/12/23 11:20:45;;;;;;;0.00;0.00;;;;;;;2.07;84.99;99459.38;15735532;28;20570;-52
2023/12/23 11:28:21;;;;;;;0.05;0.05;;;;;;;1.83;86.72;99467.63;15730605;28;20489;-51
2023/12/23 11:35:57;;;;;;;0.30;0.30;;;;;;;1.75;85.95;99456.13;15718640;28;20175;-49
2023/12/23 11:43:32;;;;;;;0.00;0.00;;;;;;;1.76;86.43;99467.53;15737793;28;20072;-50
2023/12/23 11:51:06;;;;;;;0.00;0.00;;;;;;;2.11;84.46;99468.59;15736859;28;20523;-50
2023/12/23 11:58:42;;;;;;;0.00;0.00;;;;;;;2.45;84.31;99475.84;15718669;28;20044;-53
2023/12/23 12:06:18;;;;;;;0.10;0.10;;;;;;;2.12;84.75;99494.03;15736758;28;20497;-50
2023/12/23 12:13:52;;;;;;;;;;;;;;;2.38;84.74;99497.97;15717861;28;20049;-51
2023/12/23 12:21:25;;;;;;;0.00;0.00;;;;;;;2.17;84.62;99496.94;15734853;28;19978;-50
2023/12/23 12:29:01;;;;;;;0.00;0.00;;;;;;;2.14;84.33;99488.53;15732963;28;20040;-50
2023/12/23 12:36:34;;;;;;;0.00;0.00;;;;;;;2.12;84.51;99466.75;15715053;28;20037;-53
2023/12/23 12:44:09;;;;;;;0.00;0.00;;;;;;;2.10;84.15;99495.22;15711926;28;20107;-53
2023/12/23 12:51:43;;;;;;;0.00;0.00;;;;;;;2.17;84.60;99486.34;15729562;28;20047;-49
2023/12/23 12:59:19;;;;;;;0.00;0.00;;;;;;;2.26;84.84;99489.72;15733718;28;20124;-51
2023/12/23 13:06:53;;;;;;;0.00;0.00;;;;;;;2.35;83.90;99507.13;15732546;28;20128;-53
2023/12/23 13:14:28;;;;;;;0.00;0.00;;;;;;;2.29;83.60;99514.00;15716560;28;20502;-51
2023/12/23 13:22:01;;;;;;;0.00;0.00;;;;;;;1.86;85.96;99528.09;15698718;28;20071;-55
2023/12/23 13:29:36;;;;;;;0.00;0.00;;;;;;;2.46;85.09;99529.63;15717207;28;20056;-51
2023/12/23 13:37:10;;;;;;;0.00;0.00;;;;;;;2.26;84.38;99540.00;15731843;28;20115;-52
2023/12/23 13:44:44;;;;;;;;;;;;;;;2.18;85.28;99548.88;15736660;28;20051;-49
2023/12/23 13:52:19;;;;;;;0.00;0.00;;;;;;;2.04;85.31;99555.00;15725628;28;20484;-49
2023/12/23 13:59:54;;;;;;;0.55;0.55;;;;;;;2.22;85.47;99567.84;15725350;28;20043;-52
2023/12/23 14:07:27;;;;;;;0.00;0.00;;;;;;;2.40;84.92;99573.59;15745580;28;20033;-51
2023/12/23 14:15:02;;;;;;;0.00;0.00;;;;;;;2.17;84.97;99581.66;15744016;28;20114;-50
2023/12/23 14:22:35;;;;;;;0.00;0.00;;;;;;;2.20;85.39;99599.81;15744168;28;20064;-51
2023/12/23 14:30:11;;;;;;;0.00;0.00;;;;;;;2.01;86.87;99627.66;15742828;28;20448;-52
2023/12/23 14:37:45;;;;;;;0.00;0.00;;;;;;;2.25;86.64;99625.75;15725577;28;20033;-50
2023/12/23 14:45:20;;;;;;;0.00;0.00;;;;;;;2.18;86.31;99640.72;15740491;28;20047;-50
2023/12/23 14:52:53;;;;;;;0.00;0.00;;;;;;;2.29;86.34;99648.22;15741812;28;20036;-48
2023/12/23 15:00:28;;;;;;;0.00;0.00;;;;;;;2.33;86.90;99662.69;15740219;28;20040;-52
2023/12/23 15:08:06;;;;;;;0.00;0.00;;;;;;;2.43;86.07;99663.25;15740374;28;20052;-51
2023/12/23 15:15:42;;;;;;;0.00;0.00;;;;;;;2.32;85.55;99637.22;15721353;28;20060;-54
2023/12/23 15:23:15;;;;;;;0.00;0.00;;;;;;;2.48;85.09;99683.91;15737764;28;20465;-54
2023/12/23 15:30:52;;;;;;;0.00;0.00;;;;;;;2.51;85.65;99697.56;15719592;28;20067;-52
2023/12/23 15:38:26;;;;;;;2.05;0.35;;;;;;;2.55;85.74;99712.09;15736518;28;20348;-52
2023/12/23 15:46:02;;;;;;;0.00;0.00;;;;;;;2.30;86.41;99702.78;15718446;28;20545;-50
2023/12/23 15:53:37;;;;;;;0.00;0.00;;;;;;;2.32;85.50;99729.09;15737094;28;20039;-52
2023/12/23 16:01:14;;;;;;;0.00;0.00;;;;;;;2.27;86.39;99740.22;15735265;28;20047;-51
2023/12/23 16:08:47;;;;;;;0.00;0.00;;;;;;;2.67;85.88;99744.25;15734573;28;20040;-55
2023/12/23 16:16:23;;;;;;;0.00;0.00;;;;;;;2.53;85.94;99761.81;15713897;28;20086;-51
2023/12/23 16:23:57;;;;;;;0.00;0.00;;;;;;;2.58;85.97;99761.25;15734426;28;20036;-51
2023/12/23 16:31:32;;;;;;;0.00;0.00;;;;;;;2.68;85.29;99766.28;15735262;28;20428;-48
2023/12/23 16:39:06;;;;;;;0.00;0.00;;;;;;;2.43;85.87;99776.31;15717061;28;20540;-52
2023/12/23 16:46:41;;;;;;;0.00;0.00;;;;;;;2.38;85.75;99771.56;15715935;28;20106;-50
2023/12/23 16:54:14;;;;;;;0.00;0.00;;;;;;;2.66;84.97;99784.16;15734916;28;20044;-50
2023/12/23 17:01:49;;;;;;;0.00;0.00;;;;;;;2.66;84.08;99784.16;15736281;28;20037;-47
2023/12/23 17:09:23;;;;;;;0.00;0.00;;;;;;;2.35;85.81;99806.34;15715317;28;20054;-50
2023/12/23 17:16:57;;;;;;;0.00;0.00;;;;;;;2.66;84.23;99782.38;15734942;28;20071;-50
2023/12/23 17:24:31;;;;;;;0.00;0.00;;;;;;;2.13;85.83;99799.25;15728535;28;20135;-48
2023/12/23 17:32:06;;;;;;;;;;;;;;;2.39;85.80;99804.16;15727972;28;20143;-49
2023/12/23 17:39:39;;;;;;;0.10;0.10;;;;;;;2.29;85.48;99801.78;15746329;28;19956;-48
2023/12/23 17:47:14;;;;;;;;;;;;;;;2.42;85.34;99791.38;15744229;28;20037;-48
2023/12/23 17:54:47;;;;;;;0.00;0.00;;;;;;;2.39;85.88;99788.28;15676353;22;19975;-48
2023/12/23 18:02:22;;;;;;;;;;;;;;;2.58;84.95;99784.28;15651186;28;20376;-53
2023/12/23 18:09:55;;;;;;;0.00;0.00;;;;;;;2.83;83.64;99787.47;15661056;28;19921;-52
2023/12/23 18:17:31;;;;;;;0.00;0.00;;;;;;;2.96;82.74;99788.47;15676084;28;20049;-52
2023/12/23 18:25:08;;;;;;;0.00;0.00;;;;;;;3.06;82.16;99791.66;15649232;28;20436;-48
2023/12/23 18:32:44;;;;;;;0.00;0.00;;;;;;;3.17;81.68;99808.09;15679152;28;20098;-48
2023/12/23 18:40:17;;;;;;;0.10;0.10;;;;;;;2.77;83.55;99813.69;15676779;28;20120;-51
2023/12/23 18:47:51;;;;;;;;;;;;;;;3.06;82.15;99810.22;15641632;28;20116;-52
2023/12/23 18:55:25;;;;;;;0.40;0.40;;;;;;;3.07;82.63;99811.03;15676233;28;20144;-48
2023/12/23 19:03:01;;;;;;;;;;;;;;;2.45;84.88;99838.69;15680874;28;20126;-49
2023/12/23 19:10:34;;;;;;;0.05;0.05;;;;;;;2.50;85.82;99857.50;15656741;28;20377;-49
2023/12/23 19:18:09;;;;;;;0.00;0.00;;;;;;;2.48;85.02;99877.25;15675821;28;20045;-49
2023/12/23 19:25:44;;;;;;;0.00;0.00;;;;;;;2.58;85.64;99871.69;15649101;28;20033;-49
2023/12/23 19:33:19;;;;;;;0.00;0.00;;;;;;;2.79;85.28;99874.44;15644034;28;20565;-51
2023/12/23 19:40:52;;;;;;;0.28;0.28;;;;;;;2.50;85.80;99872.56;15675115;28;20048;-50
2023/12/23 19:48:27;;;;;;;;;;;;;;;2.67;85.30;99879.38;15648496;28;20148;-48
2023/12/23 19:56:00;;;;;;;0.00;0.00;;;;;;;2.66;85.14;99890.13;15672756;28;20241;-51
2023/12/23 20:03:38;;;;;;;0.00;0.00;;;;;;;2.75;84.74;99892.56;15671283;28;20045;-47
2023/12/23 20:11:23;;;;;;;0.00;0.00;;;;;;;2.56;85.19;99898.34;15675183;28;20052;-49
2023/12/23 20:18:58;;;;;;;0.00;0.00;;;;;;;2.58;85.12;99898.19;15668406;28;20121;-54
2023/12/23 20:26:31;;;;;;;0.20;0.20;;;;;;;2.53;84.51;99906.66;15652213;28;20037;-47
2023/12/23 20:34:09;;;;;;;0.00;0.00;;;;;;;2.44;85.64;99911.19;15656468;28;20052;-49
2023/12/23 20:41:42;;;;;;;0.00;0.00;;;;;;;2.32;86.54;99919.72;15645459;28;20508;-49
2023/12/23 20:49:17;;;;;;;;;;;;;;;2.26;86.82;99911.50;15638358;28;20041;-49
2023/12/23 20:56:51;;;;;;;0.00;0.00;;;;;;;2.44;86.37;99905.09;15641135;28;20460;-49
2023/12/23 21:04:25;;;;;;;0.00;0.00;;;;;;;2.49;86.75;99910.66;15656727;28;20138;-52
2023/12/23 21:11:59;;;;;;;0.00;0.00;;;;;;;2.02;87.47;99907.19;15655584;28;20242;-52
2023/12/23 21:19:38;;;;;;;0.00;0.00;;;;;;;2.47;86.61;99905.56;15658483;28;20053;-48
2023/12/23 21:27:11;;;;;;;0.00;0.00;;;;;;;2.20;86.84;99900.81;15643128;28;20045;-48
2023/12/23 21:34:47;;;;;;;0.00;0.00;;;;;;;2.82;85.17;99900.59;15610299;28;20069;-51
2023/12/23 21:42:20;;;;;;;0.00;0.00;;;;;;;2.41;85.12;99849.81;15645937;28;20525;-53
2023/12/23 21:49:55;;;;;;;0.05;0.05;;;;;;;2.57;84.70;99896.53;15646949;28;20141;-53
2023/12/23 21:57:32;;;;;;;0.00;0.00;;;;;;;2.31;85.29;99900.38;15639974;28;20037;-50
2023/12/23 22:05:07;;;;;;;;;;;;;;;2.22;84.96;99896.16;15661625;28;20041;-48
2023/12/23 22:12:40;;;;;;;0.00;0.00;;;;;;;1.91;86.57;99881.16;15661007;28;19944;-53
2023/12/23 22:20:15;;;;;;;0.00;0.00;;;;;;;1.98;85.62;99884.72;15681567;28;20220;-50
2023/12/23 22:27:49;;;;;;;0.00;0.00;;;;;;;1.86;84.82;99888.75;15681196;28;20041;-50
2023/12/23 22:35:24;;;;;;;0.00;0.00;;;;;;;2.16;83.58;99888.91;15680644;28;20044;-50
2023/12/23 22:42:58;;;;;;;0.00;0.00;;;;;;;2.34;81.38;99889.44;15677860;28;20430;-49
2023/12/23 22:50:32;;;;;;;;;;;;;;;2.29;80.36;99884.69;15661128;28;20044;-50
2023/12/23 22:58:06;;;;;;;0.00;0.00;;;;;;;2.33;79.85;99871.88;15670088;28;19924;-51
2023/12/23 23:05:41;;;;;;;0.00;0.00;;;;;;;2.11;80.64;99880.69;15660609;28;20118;-49
2023/12/23 23:13:16;;;;;;;0.00;0.00;;;;;;;1.90;80.37;99879.47;15661207;28;20041;-48
2023/12/23 23:20:52;;;;;;;0.00;0.00;;;;;;;1.96;80.20;99878.81;15628745;28;20076;-47
2023/12/23 23:28:25;;;;;;;0.00;0.00;;;;;;;2.03;80.72;99874.44;15667116;28;20486;-48
2023/12/23 23:36:00;;;;;;;0.00;0.00;;;;;;;1.63;81.91;99882.63;15673920;28;20041;-53
2023/12/23 23:43:33;;;;;;;0.00;0.00;;;;;;;1.83;81.22;99881.19;15676742;28;20497;-50
2023/12/23 23:51:11;;;;;;;;;;;;;;;1.79;80.56;99893.94;15680366;22;20099;-49
2023/12/23 23:58:45;;;;;;;1.08;1.08;;;;;;;1.83;81.55;99891.78;15730317;28;20023;-47
